Time;durP1;ratioP1;P1;durP2;ratioP2;P2;SDS_P1;SDS_P2;PMS_P1;PMS_P2;Temp;Humidity;BMP_temperature;BMP_pressure;BME280_temperature;BME280_humidity;BME280_pressure;Samples;Min_cycle;Max_cycle;Signal;HPM_P1;HPM_P2
2023/11/06 00:02:29;;;;;;;;;;;;;;;8.15;100.00;94369.97;10557633;27;2904;-74
2023/11/06 00:07:31;;;;;;;;;;;;;;;8.04;100.00;94372.81;10555789;27;2557;-74
2023/11/06 00:12:34;;;;;;;;;;;;;;;8.01;100.00;94375.25;10560769;27;2702;-73
2023/11/06 00:17:36;;;;;;;;;;;;;;;8.01;100.00;94376.03;10559072;28;2649;-74
2023/11/06 00:22:39;;;;;;;;;;;;;;;8.03;100.00;94384.59;10544825;28;2680;-75
2023/11/06 00:27:42;;;;;;;;;;;;;;;7.95;100.00;94393.28;10565643;28;2604;-72
2023/11/06 00:32:44;;;;;;;;;;;;;;;7.98;100.00;94397.25;10562371;28;2634;-74
2023/11/06 00:37:47;;;;;;;;;;;;;;;8.30;100.00;94396.50;10562904;28;2667;-75
2023/11/06 00:42:49;;;;;;;;;;;;;;;8.50;100.00;94393.50;10561842;28;5024;-74
2023/11/06 00:47:52;;;;;;;;;;;;;;;8.59;100.00;94399.78;10560852;28;2607;-74
2023/11/06 00:52:56;;;;;;;;;;;;;;;8.54;100.00;94412.47;10561625;28;2577;-71
2023/11/06 00:57:59;;;;;;;;;;;;;;;8.55;100.00;94433.59;10564114;28;2616;-74
2023/11/06 01:03:02;;;;;;;;;;;;;;;8.73;100.00;94444.56;10565472;28;2592;-75
2023/11/06 01:08:05;;;;;;;;;;;;;;;8.73;100.00;94447.25;10556696;28;2580;-74
2023/11/06 01:13:07;;;;;;;;;;;;;;;8.69;100.00;94448.91;10559754;28;2669;-72
2023/11/06 01:18:11;;;;;;;;;;;;;;;8.60;100.00;94452.25;10574469;27;2678;-74
2023/11/06 01:23:14;;;;;;;;;;;;;;;8.61;100.00;94440.47;10563774;27;2665;-75
2023/11/06 01:28:16;;;;;;;;;;;;;;;8.63;100.00;94440.94;10568448;27;2591;-74
2023/11/06 01:33:19;;;;;;;;;;;;;;;8.50;100.00;94451.63;10568041;27;2658;-78
2023/11/06 01:38:21;;;;;;;;;;;;;;;8.42;100.00;94463.81;10569894;27;2652;-74
2023/11/06 01:43:24;;;;;;;;;;;;;;;8.43;100.00;94468.06;10564829;27;4815;-74
2023/11/06 01:48:27;;;;;;;;;;;;;;;8.37;100.00;94479.94;10566512;27;2598;-74
2023/11/06 01:53:29;;;;;;;;;;;;;;;8.36;100.00;94473.00;10575904;27;2647;-73
2023/11/06 01:58:32;;;;;;;;;;;;;;;8.35;100.00;94479.41;10577109;27;2624;-74
2023/11/06 02:03:34;;;;;;;;;;;;;;;8.24;100.00;94488.66;10570588;27;2612;-74
2023/11/06 02:08:37;;;;;;;;;;;;;;;8.25;100.00;94490.25;10573420;27;2698;-72
2023/11/06 02:13:39;;;;;;;;;;;;;;;8.10;100.00;94475.22;10568488;27;2581;-72
2023/11/06 02:18:42;;;;;;;;;;;;;;;8.03;100.00;94497.00;10570181;27;2685;-75
2023/11/06 02:23:45;;;;;;;;;;;;;;;8.10;100.00;94507.34;10563089;27;2583;-73
2023/11/06 02:28:47;;;;;;;;;;;;;;;7.97;100.00;94518.75;10563603;27;2708;-72
2023/11/06 02:33:49;;;;;;;;;;;;;;;8.01;100.00;94509.84;10570381;27;2570;-73
2023/11/06 02:38:52;;;;;;;;;;;;;;;8.06;100.00;94509.78;10569000;27;3077;-73
2023/11/06 02:43:54;;;;;;;;;;;;;;;8.08;100.00;94509.53;10575059;27;4712;-75
2023/11/06 02:48:58;;;;;;;;;;;;;;;7.96;100.00;94526.00;10568971;27;2574;-74
2023/11/06 02:54:03;;;;;;;;;;;;;;;7.90;100.00;94540.50;10568572;27;2852;-75
2023/11/06 02:59:07;;;;;;;;;;;;;;;7.76;100.00;94539.59;10565097;27;2688;-73
2023/11/06 03:04:12;;;;;;;;;;;;;;;7.73;100.00;94553.56;10571236;27;2767;-75
2023/11/06 03:09:14;;;;;;;;;;;;;;;7.63;100.00;94553.66;10564397;27;2631;-73
2023/11/06 03:14:17;;;;;;;;;;;;;;;7.51;100.00;94565.56;10545327;27;2616;-74
2023/11/06 03:19:20;;;;;;;;;;;;;;;7.55;100.00;94566.56;10569709;27;2564;-74
2023/11/06 03:24:22;;;;;;;;;;;;;;;7.44;100.00;94566.94;10565484;27;2663;-76
2023/11/06 03:29:25;;;;;;;;;;;;;;;7.56;100.00;94576.19;10558425;27;2685;-73
2023/11/06 03:34:27;;;;;;;;;;;;;;;7.57;100.00;94583.16;10568177;27;2603;-74
2023/11/06 03:39:30;;;;;;;;;;;;;;;7.51;100.00;94578.13;10563286;27;2730;-77
2023/11/06 03:44:32;;;;;;;;;;;;;;;7.42;100.00;94583.28;10558798;27;4683;-73
2023/11/06 03:49:35;;;;;;;;;;;;;;;7.42;100.00;94588.63;10574012;27;2584;-73
2023/11/06 03:54:37;;;;;;;;;;;;;;;7.47;100.00;94601.97;10561100;27;2679;-72
2023/11/06 03:59:40;;;;;;;;;;;;;;;7.41;100.00;94584.38;10567687;27;2697;-74
2023/11/06 04:04:42;;;;;;;;;;;;;;;7.42;100.00;94587.84;10564349;27;2667;-74
2023/11/06 04:09:45;;;;;;;;;;;;;;;7.37;100.00;94596.69;10561408;27;2574;-75
2023/11/06 04:14:47;;;;;;;;;;;;;;;7.46;100.00;94594.22;10559900;27;2707;-75
2023/11/06 04:19:50;;;;;;;;;;;;;;;7.44;100.00;94594.47;10566934;28;2644;-74
2023/11/06 04:24:52;;;;;;;;;;;;;;;7.41;100.00;94595.06;10559724;28;2762;-75
2023/11/06 04:29:54;;;;;;;;;;;;;;;7.47;100.00;94598.50;10567622;28;2582;-73
2023/11/06 04:34:57;;;;;;;;;;;;;;;7.40;100.00;94596.16;10561715;28;2588;-74
2023/11/06 04:40:00;;;;;;;;;;;;;;;7.31;100.00;94597.81;10559484;28;2604;-75
2023/11/06 04:45:04;;;;;;;;;;;;;;;7.28;100.00;94599.19;10562732;28;4938;-75
2023/11/06 04:50:07;;;;;;;;;;;;;;;7.28;100.00;94598.41;10569210;27;2574;-74
2023/11/06 04:55:10;;;;;;;;;;;;;;;7.33;100.00;94606.38;10573033;27;2607;-74
2023/11/06 05:00:12;;;;;;;;;;;;;;;7.27;100.00;94612.84;10567690;27;2649;-74
2023/11/06 05:05:15;;;;;;;;;;;;;;;7.22;100.00;94610.22;10572753;27;2628;-75
2023/11/06 05:10:18;;;;;;;;;;;;;;;7.16;100.00;94624.69;10571930;27;2628;-74
2023/11/06 05:15:20;;;;;;;;;;;;;;;7.16;100.00;94627.38;10569397;27;2618;-74
2023/11/06 05:20:24;;;;;;;;;;;;;;;7.05;100.00;94629.31;10565118;27;2664;-74
2023/11/06 05:25:27;;;;;;;;;;;;;;;7.00;100.00;94635.50;10561709;27;2616;-76
2023/11/06 05:30:29;;;;;;;;;;;;;;;7.00;100.00;94646.19;10569955;27;3210;-73
2023/11/06 05:35:32;;;;;;;;;;;;;;;7.02;100.00;94649.38;10574646;27;2669;-73
2023/11/06 05:40:34;;;;;;;;;;;;;;;7.05;100.00;94654.16;10564622;27;2598;-73
2023/11/06 05:45:37;;;;;;;;;;;;;;;7.18;100.00;94663.41;10563810;27;4903;-74
2023/11/06 05:50:39;;;;;;;;;;;;;;;7.19;100.00;94677.56;10569319;27;2730;-74
2023/11/06 05:55:42;;;;;;;;;;;;;;;7.23;100.00;94681.28;10564140;27;2584;-74
2023/11/06 06:00:45;;;;;;;;;;;;;;;7.20;100.00;94690.69;10570870;27;2664;-74
2023/11/06 06:05:48;;;;;;;;;;;;;;;7.21;100.00;94691.47;10568787;27;2628;-75
2023/11/06 06:10:50;;;;;;;;;;;;;;;7.28;100.00;94694.63;10542552;27;2617;-73
2023/11/06 06:15:53;;;;;;;;;;;;;;;7.29;100.00;94701.56;10564195;27;2600;-74
2023/11/06 06:20:55;;;;;;;;;;;;;;;7.26;100.00;94707.47;10569591;27;2714;-74
2023/11/06 06:25:58;;;;;;;;;;;;;;;7.21;100.00;94720.88;10569284;27;2635;-77
2023/11/06 06:31:00;;;;;;;;;;;;;;;7.22;100.00;94738.50;10573884;27;2562;-80
2023/11/06 06:36:03;;;;;;;;;;;;;;;7.22;100.00;94738.50;10566449;27;2695;-77
2023/11/06 06:41:07;;;;;;;;;;;;;;;7.23;100.00;94734.75;10563760;27;2666;-74
2023/11/06 06:46:09;;;;;;;;;;;;;;;7.33;100.00;94734.69;10566060;27;4906;-73
2023/11/06 06:51:12;;;;;;;;;;;;;;;7.38;100.00;94749.88;10567299;27;2640;-74
2023/11/06 06:56:14;;;;;;;;;;;;;;;7.47;100.00;94753.56;10572447;27;2545;-74
2023/11/06 07:01:17;;;;;;;;;;;;;;;7.50;100.00;94755.69;10566476;27;2783;-75
2023/11/06 07:06:20;;;;;;;;;;;;;;;7.49;100.00;94765.56;10562312;27;2673;-74
2023/11/06 07:11:23;;;;;;;;;;;;;;;7.55;100.00;94771.69;10532756;27;2671;-73
2023/11/06 07:16:25;;;;;;;;;;;;;;;7.52;100.00;94775.72;10560508;27;2688;-74
2023/11/06 07:21:28;;;;;;;;;;;;;;;7.58;100.00;94785.31;10559899;27;2810;-73
2023/11/06 07:26:30;;;;;;;;;;;;;;;7.69;100.00;94798.59;10556657;27;2723;-73
2023/11/06 07:31:33;;;;;;;;;;;;;;;7.80;100.00;94786.75;10543782;27;3018;-72
2023/11/06 07:36:35;;;;;;;;;;;;;;;7.90;100.00;94796.59;10563221;27;2621;-72
2023/11/06 07:41:38;;;;;;;;;;;;;;;7.97;100.00;94813.91;10563528;27;2618;-73
2023/11/06 07:46:40;;;;;;;;;;;;;;;8.07;100.00;94815.69;10563088;27;4812;-70
2023/11/06 07:51:43;;;;;;;;;;;;;;;8.08;100.00;94820.00;10558514;27;2623;-72
2023/11/06 07:56:46;;;;;;;;;;;;;;;8.06;100.00;94828.28;10556757;27;2663;-72
2023/11/06 08:01:49;;;;;;;;;;;;;;;8.23;100.00;94837.78;10563751;27;2580;-72
2023/11/06 08:06:51;;;;;;;;;;;;;;;8.40;100.00;94840.88;10557749;27;2735;-71
2023/11/06 08:11:54;;;;;;;;;;;;;;;8.55;100.00;94848.75;10552313;27;2665;-73
2023/11/06 08:16:56;;;;;;;;;;;;;;;8.70;100.00;94847.81;10555851;27;2651;-73
2023/11/06 08:21:59;;;;;;;;;;;;;;;8.86;100.00;94851.94;10550289;28;2628;-74
2023/11/06 08:27:03;;;;;;;;;;;;;;;9.03;100.00;94859.50;10563111;27;2986;-72
2023/11/06 08:32:06;;;;;;;;;;;;;;;9.28;100.00;94862.97;10566526;27;2552;-72
2023/11/06 08:37:09;;;;;;;;;;;;;;;9.46;100.00;94864.88;10563581;27;2627;-73
2023/11/06 08:42:12;;;;;;;;;;;;;;;9.59;100.00;94866.06;10562148;27;4838;-72
2023/11/06 08:47:15;;;;;;;;;;;;;;;9.72;100.00;94868.81;10560062;27;2623;-72
2023/11/06 08:52:18;;;;;;;;;;;;;;;9.91;100.00;94879.53;10567614;27;2619;-72
2023/11/06 08:57:21;;;;;;;;;;;;;;;9.98;100.00;94888.03;10566467;27;2573;-72
2023/11/06 09:02:23;;;;;;;;;;;;;;;10.01;100.00;94894.72;10566110;27;2643;-70
2023/11/06 09:07:26;;;;;;;;;;;;;;;10.12;100.00;94903.44;10567060;27;2558;-72
2023/11/06 09:12:29;;;;;;;;;;;;;;;10.17;100.00;94906.03;10565409;27;2644;-72
2023/11/06 09:17:32;;;;;;;;;;;;;;;10.22;100.00;94920.16;10565885;27;2599;-72
2023/11/06 09:22:34;;;;;;;;;;;;;;;10.31;100.00;94927.59;10570109;27;2710;-72
2023/11/06 09:27:36;;;;;;;;;;;;;;;10.38;100.00;94928.84;10570414;27;2683;-73
2023/11/06 09:32:39;;;;;;;;;;;;;;;10.62;100.00;94926.03;10569520;27;2628;-70
2023/11/06 09:37:42;;;;;;;;;;;;;;;10.73;100.00;94935.50;10562123;27;2584;-73
2023/11/06 09:42:48;;;;;;;;;;;;;;;10.79;100.00;94937.03;10566777;27;4791;-73
2023/11/06 09:47:51;;;;;;;;;;;;;;;10.85;100.00;94937.75;10565324;27;2587;-73
2023/11/06 09:52:55;;;;;;;;;;;;;;;10.92;100.00;94937.34;10564204;27;2726;-72
2023/11/06 09:57:57;;;;;;;;;;;;;;;11.00;100.00;94933.97;10557811;27;2572;-73
2023/11/06 10:02:59;;;;;;;;;;;;;;;11.18;100.00;94940.38;10563869;27;2668;-72
2023/11/06 10:08:04;;;;;;;;;;;;;;;11.30;100.00;94944.19;10550662;27;2698;-72
2023/11/06 10:13:07;;;;;;;;;;;;;;;11.45;100.00;94929.66;10559913;27;2560;-72
2023/11/06 10:18:11;;;;;;;;;;;;;;;11.32;100.00;94920.50;10560090;27;2670;-73
2023/11/06 10:23:14;;;;;;;;;;;;;;;11.54;100.00;94927.06;10561712;27;2619;-73
2023/11/06 10:28:16;;;;;;;;;;;;;;;11.57;100.00;94926.44;10561077;27;2532;-72
2023/11/06 10:33:20;;;;;;;;;;;;;;;11.70;100.00;94924.84;10562582;27;2683;-74
2023/11/06 10:38:26;;;;;;;;;;;;;;;11.73;100.00;94918.88;10555311;27;2729;-70
2023/11/06 10:43:29;;;;;;;;;;;;;;;11.64;100.00;94916.06;10556096;27;4872;-71
2023/11/06 10:48:32;;;;;;;;;;;;;;;11.71;100.00;94913.78;10554916;27;2636;-70
2023/11/06 10:53:35;;;;;;;;;;;;;;;11.71;100.00;94908.41;10558443;27;2685;-72
2023/11/06 10:58:38;;;;;;;;;;;;;;;11.74;100.00;94918.56;10560812;27;2602;-71
2023/11/06 11:03:41;;;;;;;;;;;;;;;11.77;100.00;94909.88;10560744;27;2630;-71
2023/11/06 11:08:47;;;;;;;;;;;;;;;11.69;100.00;94913.28;10561117;27;2558;-70
2023/11/06 11:13:50;;;;;;;;;;;;;;;11.67;100.00;94910.09;10555684;27;2631;-71
2023/11/06 11:18:53;;;;;;;;;;;;;;;11.60;100.00;94915.88;10561663;27;2732;-72
2023/11/06 11:23:55;;;;;;;;;;;;;;;11.57;100.00;94904.91;10560333;27;2605;-72
2023/11/06 11:28:58;;;;;;;;;;;;;;;11.60;100.00;94904.31;10558614;27;2617;-73
2023/11/06 11:34:00;;;;;;;;;;;;;;;11.66;100.00;94911.19;10555038;27;3068;-71
2023/11/06 11:39:05;;;;;;;;;;;;;;;11.87;100.00;94908.88;10552929;27;2679;-74
2023/11/06 11:44:08;;;;;;;;;;;;;;;12.09;100.00;94906.25;10555720;27;4956;-73
2023/11/06 11:49:12;;;;;;;;;;;;;;;12.11;100.00;94903.25;10560639;27;2854;-74
2023/11/06 11:54:15;;;;;;;;;;;;;;;12.12;100.00;94908.31;10557204;27;2639;-74
2023/11/06 11:59:18;;;;;;;;;;;;;;;12.11;100.00;94890.56;10553438;27;2593;-75
2023/11/06 12:04:20;;;;;;;;;;;;;;;12.08;100.00;94903.84;10548052;27;2658;-73
2023/11/06 12:09:23;;;;;;;;;;;;;;;12.23;100.00;94910.81;10553584;28;2624;-72
2023/11/06 12:14:25;;;;;;;;;;;;;;;12.26;100.00;94915.56;10557316;27;2740;-73
2023/11/06 12:19:29;;;;;;;;;;;;;;;12.32;100.00;94907.06;10544893;28;2576;-73
2023/11/06 12:24:33;;;;;;;;;;;;;;;12.34;100.00;94912.13;10559373;28;2656;-75
2023/11/06 12:29:39;;;;;;;;;;;;;;;12.49;100.00;94913.69;10558751;28;2683;-74
2023/11/06 12:34:45;;;;;;;;;;;;;;;12.73;100.00;94908.78;10561715;28;2820;-73
2023/11/06 12:39:48;;;;;;;;;;;;;;;12.53;100.00;94909.25;10554464;28;2588;-75
2023/11/06 12:44:51;;;;;;;;;;;;;;;12.65;100.00;94914.91;10562422;28;4823;-74
2023/11/06 12:49:57;;;;;;;;;;;;;;;12.74;100.00;94906.88;10559548;28;2567;-73
2023/11/06 12:55:00;;;;;;;;;;;;;;;12.76;100.00;94918.94;10565427;28;2578;-73
2023/11/06 13:00:05;;;;;;;;;;;;;;;13.08;100.00;94925.16;10562873;28;2699;-75
2023/11/06 13:05:08;;;;;;;;;;;;;;;13.19;100.00;94913.78;10558882;28;2613;-73
2023/11/06 13:10:11;;;;;;;;;;;;;;;13.15;100.00;94917.41;10563610;27;2616;-75
2023/11/06 13:15:14;;;;;;;;;;;;;;;13.07;100.00;94910.09;10567340;27;2690;-72
2023/11/06 13:20:28;;;;;;;;;;;;;;;13.02;100.00;94921.00;10570070;27;2583;-76
2023/11/06 13:25:31;;;;;;;;;;;;;;;13.15;100.00;94931.69;10572939;27;2685;-76
2023/11/06 13:30:33;;;;;;;;;;;;;;;13.15;100.00;94923.59;10569426;27;2624;-73
2023/11/06 13:35:36;;;;;;;;;;;;;;;13.13;100.00;94933.91;10551727;27;2671;-73
2023/11/06 13:40:42;;;;;;;;;;;;;;;12.98;100.00;94929.72;10577004;27;2614;-72
2023/11/06 13:45:48;;;;;;;;;;;;;;;13.08;100.00;94934.06;10568496;27;4915;-73
2023/11/06 13:50:50;;;;;;;;;;;;;;;13.13;100.00;94927.72;10572914;27;2645;-73
2023/11/06 13:56:07;;;;;;;;;;;;;;;13.12;100.00;94932.34;10568693;27;2538;-72
2023/11/06 14:01:14;;;;;;;;;;;;;;;12.87;100.00;94924.91;10566301;27;2888;-74
2023/11/06 14:06:17;;;;;;;;;;;;;;;12.88;100.00;94929.19;10565666;27;2651;-72
2023/11/06 14:11:21;;;;;;;;;;;;;;;12.77;100.00;94923.22;10569525;27;2665;-73
2023/11/06 14:16:23;;;;;;;;;;;;;;;12.62;100.00;94926.31;10575331;27;2645;-72
2023/11/06 14:21:26;;;;;;;;;;;;;;;12.49;100.00;94936.06;10573639;27;2597;-74
2023/11/06 14:26:29;;;;;;;;;;;;;;;12.45;100.00;94930.47;10564163;27;2567;-73
2023/11/06 14:31:32;;;;;;;;;;;;;;;12.34;100.00;94921.03;10565053;27;2743;-73
2023/11/06 14:36:35;;;;;;;;;;;;;;;12.21;100.00;94924.56;10567881;27;2931;-71
2023/11/06 14:41:37;;;;;;;;;;;;;;;12.26;100.00;94921.75;10567093;27;2553;-72
2023/11/06 14:46:40;;;;;;;;;;;;;;;12.04;100.00;94936.00;10562240;27;4953;-74
2023/11/06 14:51:42;;;;;;;;;;;;;;;11.94;100.00;94930.81;10564838;27;2644;-73
2023/11/06 14:56:45;;;;;;;;;;;;;;;11.86;100.00;94924.25;10565828;27;2657;-73
2023/11/06 15:01:48;;;;;;;;;;;;;;;11.87;100.00;94931.22;10572287;27;2682;-75
2023/11/06 15:06:50;;;;;;;;;;;;;;;11.77;100.00;94939.50;10552326;27;2645;-73
2023/11/06 15:11:53;;;;;;;;;;;;;;;11.63;100.00;94941.38;10571570;27;2570;-73
2023/11/06 15:16:57;;;;;;;;;;;;;;;11.52;100.00;94930.06;10564007;27;2553;-74
2023/11/06 15:21:59;;;;;;;;;;;;;;;11.42;100.00;94945.59;10568023;27;2683;-73
2023/11/06 15:27:02;;;;;;;;;;;;;;;11.32;100.00;94939.31;10561130;27;2704;-72
2023/11/06 15:32:04;;;;;;;;;;;;;;;11.13;100.00;94941.25;10560390;27;2815;-72
2023/11/06 15:37:09;;;;;;;;;;;;;;;11.05;100.00;94941.97;10554240;27;2601;-73
2023/11/06 15:42:11;;;;;;;;;;;;;;;10.96;100.00;94939.16;10571231;27;4786;-74
2023/11/06 15:47:14;;;;;;;;;;;;;;;10.94;100.00;94945.91;10558261;27;2560;-72
2023/11/06 15:52:17;;;;;;;;;;;;;;;10.79;100.00;94950.47;10559791;27;2978;-73
2023/11/06 15:57:20;;;;;;;;;;;;;;;10.66;100.00;94950.44;10569197;27;2569;-76
2023/11/06 16:02:24;;;;;;;;;;;;;;;10.50;100.00;94947.19;10572416;27;2601;-73
2023/11/06 16:07:26;;;;;;;;;;;;;;;10.53;100.00;94957.34;10568608;27;2625;-73
2023/11/06 16:12:29;;;;;;;;;;;;;;;10.51;100.00;94970.28;10563084;27;2723;-73
2023/11/06 16:17:31;;;;;;;;;;;;;;;10.52;100.00;94966.50;10566582;27;2656;-73
2023/11/06 16:22:34;;;;;;;;;;;;;;;10.50;100.00;94972.19;10560610;28;2691;-74
2023/11/06 16:27:36;;;;;;;;;;;;;;;10.43;100.00;94985.19;10564898;27;2695;-74
2023/11/06 16:32:39;;;;;;;;;;;;;;;10.46;100.00;94999.91;10561233;28;2640;-74
2023/11/06 16:37:42;;;;;;;;;;;;;;;10.46;100.00;95005.28;10544165;28;2640;-73
2023/11/06 16:42:45;;;;;;;;;;;;;;;10.48;100.00;95011.97;10567499;28;4875;-72
2023/11/06 16:47:48;;;;;;;;;;;;;;;10.46;100.00;95013.34;10580980;27;2645;-72
2023/11/06 16:52:55;;;;;;;;;;;;;;;10.46;100.00;95010.66;10580883;27;2571;-71
2023/11/06 16:58:01;;;;;;;;;;;;;;;10.39;100.00;95015.59;10575827;27;2651;-73
2023/11/06 17:03:04;;;;;;;;;;;;;;;10.26;100.00;95017.94;10555731;27;2663;-73
2023/11/06 17:08:08;;;;;;;;;;;;;;;10.20;100.00;95024.41;10573125;27;2667;-72
2023/11/06 17:13:11;;;;;;;;;;;;;;;10.14;100.00;95030.94;10578907;27;2668;-74
2023/11/06 17:18:18;;;;;;;;;;;;;;;10.13;100.00;95029.34;10577036;27;2591;-72
2023/11/06 17:23:21;;;;;;;;;;;;;;;10.16;100.00;95039.50;10579779;27;2590;-73
2023/11/06 17:28:23;;;;;;;;;;;;;;;10.17;100.00;95041.09;10577077;27;2595;-74
2023/11/06 17:33:33;;;;;;;;;;;;;;;10.19;100.00;95044.31;10562627;27;2608;-74
2023/11/06 17:38:36;;;;;;;;;;;;;;;10.21;100.00;95057.44;10569490;27;2673;-71
2023/11/06 17:43:42;;;;;;;;;;;;;;;10.20;100.00;95056.66;10568287;27;4811;-72
2023/11/06 17:48:45;;;;;;;;;;;;;;;10.17;100.00;95059.91;10572974;27;2718;-73
2023/11/06 17:53:48;;;;;;;;;;;;;;;10.16;100.00;95071.72;10571682;27;2656;-72
2023/11/06 17:58:51;;;;;;;;;;;;;;;10.22;100.00;95072.47;10565529;27;2603;-73
2023/11/06 18:03:55;;;;;;;;;;;;;;;10.21;100.00;95078.94;10565804;27;2696;-73
2023/11/06 18:08:59;;;;;;;;;;;;;;;10.20;100.00;95083.50;10542163;27;2639;-75
2023/11/06 18:14:03;;;;;;;;;;;;;;;10.24;100.00;95084.56;10563403;27;2686;-74
2023/11/06 18:19:05;;;;;;;;;;;;;;;10.17;100.00;95100.19;10563017;27;2572;-73
2023/11/06 18:24:12;;;;;;;;;;;;;;;10.22;100.00;95108.19;10554342;27;2833;-74
2023/11/06 18:29:16;;;;;;;;;;;;;;;10.23;100.00;95117.06;10556169;27;2608;-75
2023/11/06 18:34:20;;;;;;;;;;;;;;;10.19;100.00;95111.47;10558043;27;2612;-77
2023/11/06 18:39:23;;;;;;;;;;;;;;;10.20;100.00;95121.13;10559585;27;2587;-77
2023/11/06 18:44:25;;;;;;;;;;;;;;;10.27;100.00;95131.53;10563250;27;4842;-73
2023/11/06 18:49:28;;;;;;;;;;;;;;;10.31;100.00;95137.13;10563003;27;2687;-75
2023/11/06 18:54:30;;;;;;;;;;;;;;;10.36;100.00;95143.22;10544494;27;2605;-76
2023/11/06 18:59:34;;;;;;;;;;;;;;;10.40;100.00;95151.53;10565761;27;2611;-74
2023/11/06 19:04:37;;;;;;;;;;;;;;;10.38;100.00;95156.41;10563757;27;2592;-73
2023/11/06 19:09:39;;;;;;;;;;;;;;;10.24;100.00;95169.69;10566904;27;2648;-72
2023/11/06 19:14:41;;;;;;;;;;;;;;;10.07;100.00;95177.41;10564804;27;2710;-72
2023/11/06 19:19:44;;;;;;;;;;;;;;;10.05;100.00;95177.66;10566643;27;2620;-72
2023/11/06 19:24:53;;;;;;;;;;;;;;;10.02;100.00;95189.78;10564092;27;3122;-72
2023/11/06 19:29:55;;;;;;;;;;;;;;;10.07;100.00;95193.50;10562384;27;2735;-72
2023/11/06 19:35:04;;;;;;;;;;;;;;;10.05;100.00;95185.72;10567261;27;2560;-72
2023/11/06 19:40:10;;;;;;;;;;;;;;;10.01;100.00;95193.56;10564213;27;2710;-72
2023/11/06 19:45:14;;;;;;;;;;;;;;;9.99;100.00;95205.69;10562878;27;4795;-74
2023/11/06 19:50:16;;;;;;;;;;;;;;;10.02;100.00;95210.47;10565614;27;2634;-72
2023/11/06 19:55:20;;;;;;;;;;;;;;;10.07;100.00;95212.31;10568749;27;2652;-73
2023/11/06 20:00:23;;;;;;;;;;;;;;;10.09;100.00;95215.50;10571862;27;2735;-71
2023/11/06 20:05:26;;;;;;;;;;;;;;;10.12;100.00;95225.69;10561787;27;2595;-74
2023/11/06 20:10:28;;;;;;;;;;;;;;;10.09;100.00;95224.34;10560561;27;2702;-73
2023/11/06 20:15:32;;;;;;;;;;;;;;;10.15;100.00;95231.28;10569028;27;2819;-73
2023/11/06 20:20:35;;;;;;;;;;;;;;;10.16;100.00;95238.25;10564341;27;2607;-73
2023/11/06 20:25:39;;;;;;;;;;;;;;;10.14;100.00;95255.75;10573804;27;2572;-75
2023/11/06 20:30:41;;;;;;;;;;;;;;;10.14;100.00;95248.47;10571897;28;2716;-73
2023/11/06 20:35:44;;;;;;;;;;;;;;;10.08;100.00;95257.66;10564031;28;2664;-75
2023/11/06 20:40:47;;;;;;;;;;;;;;;10.04;100.00;95262.00;10551532;28;2637;-75
2023/11/06 20:45:49;;;;;;;;;;;;;;;9.96;100.00;95265.28;10565798;28;4882;-73
2023/11/06 20:50:52;;;;;;;;;;;;;;;10.03;100.00;95277.31;10550043;28;2640;-73
2023/11/06 20:55:54;;;;;;;;;;;;;;;9.90;100.00;95298.63;10564509;28;2652;-72
2023/11/06 21:00:58;;;;;;;;;;;;;;;9.67;100.00;95311.69;10569085;27;2568;-72
2023/11/06 21:06:05;;;;;;;;;;;;;;;9.49;100.00;95325.75;10562633;28;2714;-72
2023/11/06 21:11:08;;;;;;;;;;;;;;;9.43;100.00;95343.75;10559187;28;2549;-73
2023/11/06 21:16:10;;;;;;;;;;;;;;;9.39;100.00;95353.44;10564571;28;2689;-71
2023/11/06 21:21:14;;;;;;;;;;;;;;;9.24;100.00;95366.91;10557176;28;2601;-72
2023/11/06 21:26:16;;;;;;;;;;;;;;;9.13;100.00;95378.75;10562043;28;2612;-73
2023/11/06 21:31:19;;;;;;;;;;;;;;;8.97;100.00;95386.06;10563852;27;2754;-74
2023/11/06 21:36:23;;;;;;;;;;;;;;;8.53;100.00;95393.91;10563330;27;2661;-73
2023/11/06 21:41:26;;;;;;;;;;;;;;;8.15;100.00;95403.25;10565457;27;2622;-73
2023/11/06 21:46:28;;;;;;;;;;;;;;;7.85;100.00;95426.22;10545675;27;4839;-73
2023/11/06 21:51:31;;;;;;;;;;;;;;;7.78;100.00;95426.47;10570201;27;2604;-72
2023/11/06 21:56:33;;;;;;;;;;;;;;;7.69;100.00;95437.94;10563456;27;2660;-72
2023/11/06 22:01:36;;;;;;;;;;;;;;;7.61;100.00;95441.13;10568175;27;2602;-74
2023/11/06 22:06:41;;;;;;;;;;;;;;;7.57;100.00;95439.00;10572059;27;2620;-78
2023/11/06 22:11:44;;;;;;;;;;;;;;;7.55;100.00;95411.69;10547527;27;2667;-74
2023/11/06 22:16:52;;;;;;;;;;;;;;;7.49;100.00;95457.41;10565262;27;2690;-75
2023/11/06 22:21:55;;;;;;;;;;;;;;;7.45;100.00;95448.31;10569186;27;2780;-74
2023/11/06 22:26:58;;;;;;;;;;;;;;;7.37;100.00;95440.78;10570964;27;2557;-72
2023/11/06 22:32:02;;;;;;;;;;;;;;;7.36;100.00;95445.31;10569056;27;2644;-71
2023/11/06 22:37:08;;;;;;;;;;;;;;;7.28;100.00;95449.31;10566334;27;2646;-73
2023/11/06 22:42:10;;;;;;;;;;;;;;;7.26;100.00;95469.34;10563658;27;4794;-72
2023/11/06 22:47:13;;;;;;;;;;;;;;;7.19;100.00;95474.94;10564417;27;2543;-73
2023/11/06 22:52:15;;;;;;;;;;;;;;;7.20;100.00;95473.88;10571871;27;2571;-76
2023/11/06 22:57:18;;;;;;;;;;;;;;;7.12;100.00;95470.88;10564479;27;2703;-73
2023/11/06 23:02:20;;;;;;;;;;;;;;;7.02;100.00;95483.13;10573110;27;2588;-73
2023/11/06 23:07:23;;;;;;;;;;;;;;;7.05;100.00;95484.44;10568808;27;2657;-71
2023/11/06 23:12:26;;;;;;;;;;;;;;;7.10;100.00;95467.66;10565584;27;2645;-73
2023/11/06 23:17:29;;;;;;;;;;;;;;;7.10;100.00;95467.66;10562903;27;2608;-72
2023/11/06 23:22:31;;;;;;;;;;;;;;;7.09;100.00;95471.41;10555820;27;2580;-75
2023/11/06 23:27:34;;;;;;;;;;;;;;;7.04;100.00;95467.63;10563771;27;2689;-73
2023/11/06 23:32:36;;;;;;;;;;;;;;;7.02;100.00;95463.59;10559308;27;2673;-72
2023/11/06 23:37:39;;;;;;;;;;;;;;;7.04;100.00;95475.63;10568959;27;2572;-72
2023/11/06 23:42:41;;;;;;;;;;;;;;;7.03;100.00;95484.72;10549604;27;4870;-71
2023/11/06 23:47:44;;;;;;;;;;;;;;;7.03;100.00;95491.94;10567249;27;2581;-71
2023/11/06 23:52:46;;;;;;;;;;;;;;;7.04;100.00;95490.88;10567622;27;2681;-72
2023/11/06 23:57:49;;;;;;;;;;;;;;;7.06;100.00;95494.06;10564321;27;2613;-72
